Time;durP1;ratioP1;P1;durP2;ratioP2;P2;SDS_P1;SDS_P2;PMS_P1;PMS_P2;Temp;Humidity;BMP_temperature;BMP_pressure;BME280_temperature;BME280_humidity;BME280_pressure;Samples;Min_cycle;Max_cycle;Signal;HPM_P1;HPM_P2
2022/12/24 00:00:36;;;;;;;6.05;1.17;;;12.60;99.90;;;;;;7396143;19;20531;-83
2022/12/24 00:03:02;;;;;;;1.77;1.27;;;12.60;99.90;;;;;;7395363;19;20606;-81
2022/12/24 00:05:27;;;;;;;2.03;0.80;;;12.50;99.90;;;;;;7392789;19;20142;-83
2022/12/24 00:07:53;;;;;;;3.97;1.30;;;12.50;99.90;;;;;;7394776;19;20150;-83
2022/12/24 00:10:19;;;;;;;4.43;1.75;;;12.50;99.90;;;;;;7394876;19;20270;-84
2022/12/24 00:12:45;;;;;;;3.15;1.20;;;12.60;99.90;;;;;;7393363;19;20595;-82
2022/12/24 00:15:10;;;;;;;4.13;1.20;;;12.50;99.90;;;;;;7395599;19;20126;-81
2022/12/24 00:17:36;;;;;;;2.88;1.40;;;12.50;99.90;;;;;;7392874;19;20173;-81
2022/12/24 00:20:03;;;;;;;2.67;1.30;;;12.60;99.90;;;;;;7392577;19;20127;-82
2022/12/24 00:22:29;;;;;;;5.13;1.10;;;12.60;99.90;;;;;;7395975;19;20138;-80
2022/12/24 00:24:55;;;;;;;5.00;1.47;;;12.70;99.90;;;;;;7394814;19;20504;-82
2022/12/24 00:27:20;;;;;;;4.00;1.10;;;12.70;99.90;;;;;;7395108;19;20184;-81
2022/12/24 00:29:46;;;;;;;4.63;1.23;;;12.60;99.90;;;;;;7394626;19;20130;-80
2022/12/24 00:32:12;;;;;;;2.50;1.10;;;12.40;99.90;;;;;;7393474;19;20155;-80
2022/12/24 00:34:38;;;;;;;2.15;0.93;;;12.30;99.90;;;;;;7394011;19;20206;-82
2022/12/24 00:37:05;;;;;;;4.97;1.13;;;12.30;99.90;;;;;;7394329;19;20131;-81
2022/12/24 00:39:31;;;;;;;3.87;1.30;;;12.30;99.90;;;;;;7394991;19;20254;-81
2022/12/24 00:41:57;;;;;;;2.78;1.10;;;12.20;99.90;;;;;;7393417;19;20138;-81
2022/12/24 00:44:23;;;;;;;1.58;0.80;;;12.10;99.90;;;;;;7392489;19;20153;-82
2022/12/24 00:46:48;;;;;;;4.35;1.23;;;12.20;99.90;;;;;;7391721;19;20138;-81
2022/12/24 00:49:14;;;;;;;2.97;0.98;;;12.20;99.90;;;;;;7393208;19;20149;-82
2022/12/24 00:51:40;;;;;;;2.88;1.05;;;12.30;99.90;;;;;;7392288;19;20155;-82
2022/12/24 00:54:06;;;;;;;4.03;1.15;;;12.40;99.90;;;;;;7392533;19;20222;-82
2022/12/24 00:56:32;;;;;;;4.15;1.13;;;12.40;99.90;;;;;;7394350;19;20163;-82
2022/12/24 00:58:58;;;;;;;3.40;0.97;;;12.40;99.90;;;;;;7392370;19;20146;-82
2022/12/24 01:01:25;;;;;;;2.50;1.03;;;12.30;99.90;;;;;;7394042;19;20157;-82
2022/12/24 01:03:51;;;;;;;3.43;1.23;;;12.30;99.90;;;;;;7390767;19;20151;-82
2022/12/24 01:06:19;;;;;;;4.37;1.10;;;12.30;99.90;;;;;;7393344;19;20164;-82
2022/12/24 01:08:45;;;;;;;2.42;0.82;;;12.30;99.90;;;;;;7393594;19;20514;-83
2022/12/24 01:11:12;;;;;;;4.87;1.40;;;12.50;99.90;;;;;;7392637;19;20214;-78
2022/12/24 01:13:38;;;;;;;7.03;1.47;;;12.70;99.90;;;;;;7392256;19;20134;-81
2022/12/24 01:16:13;;;;;;;1.73;1.17;;;12.70;99.90;;;;;;7391930;19;20155;-81
2022/12/24 01:18:38;;;;;;;4.45;1.27;;;12.70;99.90;;;;;;7392937;19;20134;-82
2022/12/24 01:21:04;;;;;;;3.67;1.00;;;12.60;99.90;;;;;;7392402;19;20606;-81
2022/12/24 01:23:30;;;;;;;4.93;1.50;;;12.60;99.90;;;;;;7391790;19;20134;-82
2022/12/24 01:26:01;;;;;;;3.38;0.95;;;12.60;99.90;;;;;;7387571;19;20139;-82
2022/12/24 01:28:27;;;;;;;4.38;1.48;;;12.60;99.90;;;;;;7384954;19;20661;-81
2022/12/24 01:30:53;;;;;;;3.10;1.05;;;12.60;99.90;;;;;;7392316;19;20134;-82
2022/12/24 01:33:20;;;;;;;4.95;1.48;;;12.50;99.90;;;;;;7391999;19;20222;-81
2022/12/24 01:35:46;;;;;;;1.52;0.80;;;12.30;99.90;;;;;;7393951;19;20131;-80
2022/12/24 01:38:12;;;;;;;5.68;1.40;;;12.50;99.90;;;;;;7394016;19;20146;-82
2022/12/24 01:43:27;;;;;;;4.57;1.40;;;12.70;99.90;;;;;;7394489;19;20570;-80
2022/12/24 01:46:03;;;;;;;2.77;1.30;;;12.60;99.90;;;;;;7394535;19;20488;-83
2022/12/24 01:48:32;;;;;;;2.90;1.60;;;12.70;99.90;;;;;;7393145;19;20159;-81
2022/12/24 01:51:07;;;;;;;4.37;1.50;;;12.80;99.90;;;;;;7388500;19;20630;-78
2022/12/24 01:53:36;;;;;;;5.90;1.90;;;12.60;99.90;;;;;;7394970;19;20130;-81
2022/12/24 01:56:05;;;;;;;4.10;1.17;;;12.60;99.90;;;;;;7392858;19;20202;-79
2022/12/24 01:58:33;;;;;;;4.10;1.30;;;12.10;99.90;;;;;;7393851;19;20138;-80
2022/12/24 02:00:59;;;;;;;2.07;0.93;;;12.10;99.90;;;;;;7394060;19;20138;-81
2022/12/24 02:03:24;;;;;;;4.10;1.30;;;12.10;99.90;;;;;;7390475;19;20153;-83
2022/12/24 02:05:54;;;;;;;2.97;1.10;;;12.10;99.90;;;;;;7390255;19;20134;-79
2022/12/24 02:08:20;;;;;;;4.07;1.53;;;11.90;99.90;;;;;;7393823;19;20258;-80
2022/12/24 02:10:49;;;;;;;7.53;2.07;;;11.90;99.90;;;;;;7393817;19;20157;-80
2022/12/24 02:13:17;;;;;;;4.20;1.13;;;11.80;99.90;;;;;;7393829;19;20139;-80
2022/12/24 02:15:49;;;;;;;6.70;1.50;;;11.70;99.90;;;;;;7392918;19;20586;-81
2022/12/24 02:18:44;;;;;;;2.70;1.10;;;11.90;99.90;;;;;;7390708;19;20133;-81
2022/12/24 02:21:16;;;;;;;2.30;0.93;;;12.00;99.90;;;;;;7389004;19;20165;-81
2022/12/24 02:24:06;;;;;;;3.17;1.30;;;11.80;99.90;;;;;;7390685;19;20142;-79
2022/12/24 02:27:06;;;;;;;2.60;1.00;;;11.90;99.90;;;;;;7390062;19;20174;-81
2022/12/24 02:29:58;;;;;;;4.20;1.47;;;11.80;99.90;;;;;;7393581;19;20131;-81
2022/12/24 02:32:44;;;;;;;4.00;1.30;;;11.70;99.90;;;;;;7392417;19;20130;-82
2022/12/24 02:35:48;;;;;;;6.47;1.57;;;11.90;99.90;;;;;;7392747;19;20126;-82
2022/12/24 02:38:36;;;;;;;4.87;1.30;;;11.80;99.90;;;;;;7388656;19;20506;-82
2022/12/24 02:41:08;;;;;;;4.28;1.45;;;11.90;99.90;;;;;;7390511;19;20502;-80
2022/12/24 02:43:37;;;;;;;5.57;1.90;;;11.90;99.90;;;;;;7390371;19;20130;-82
2022/12/24 02:46:16;;;;;;;2.57;1.03;;;12.00;99.90;;;;;;7389028;19;20446;-82
2022/12/24 02:48:45;;;;;;;4.90;1.30;;;12.00;99.90;;;;;;7389378;19;20142;-81
2022/12/24 02:51:11;;;;;;;4.20;1.20;;;12.00;99.90;;;;;;7390524;19;20135;-82
2022/12/24 02:53:38;;;;;;;3.83;1.00;;;12.00;99.90;;;;;;7389528;19;20142;-81
2022/12/24 02:56:26;;;;;;;6.50;1.60;;;12.20;99.90;;;;;;7388695;19;20138;-84
2022/12/24 02:59:14;;;;;;;3.53;1.13;;;12.20;99.90;;;;;;7390186;19;20149;-83
2022/12/24 03:01:57;;;;;;;6.78;1.42;;;12.00;99.90;;;;;;7390172;19;20881;-82
2022/12/24 03:04:40;;;;;;;5.47;1.60;;;11.80;99.90;;;;;;7390217;19;20150;-82
2022/12/24 03:07:28;;;;;;;3.67;1.17;;;11.70;99.90;;;;;;7393127;19;20135;-81
2022/12/24 03:10:17;;;;;;;3.47;1.20;;;11.30;99.90;;;;;;7391415;19;20139;-83
2022/12/24 03:12:56;;;;;;;2.97;1.20;;;11.50;99.90;;;;;;7388964;19;20222;-80
2022/12/24 03:15:25;;;;;;;2.60;1.47;;;11.50;99.90;;;;;;7387025;19;20142;-83
2022/12/24 03:17:54;;;;;;;4.60;1.17;;;11.60;99.90;;;;;;7391334;19;20135;-78
2022/12/24 03:20:42;;;;;;;3.40;1.33;;;11.50;99.90;;;;;;7389452;19;20661;-83
2022/12/24 03:23:07;;;;;;;4.93;1.27;;;11.40;99.90;;;;;;7388254;19;20159;-81
2022/12/24 03:25:37;;;;;;;4.70;1.33;;;11.40;99.90;;;;;;7379814;19;20571;-82
2022/12/24 03:28:05;;;;;;;4.23;1.53;;;11.50;99.90;;;;;;7389225;19;20142;-80
2022/12/24 03:30:31;;;;;;;5.63;1.73;;;11.50;99.90;;;;;;7390188;19;20139;-82
2022/12/24 03:32:57;;;;;;;5.13;1.67;;;11.60;99.90;;;;;;7388849;19;20175;-82
2022/12/24 03:35:23;;;;;;;6.33;1.57;;;11.40;99.90;;;;;;7389163;19;20131;-82
2022/12/24 03:37:49;;;;;;;3.07;1.30;;;11.40;99.90;;;;;;7388778;19;20138;-82
2022/12/24 03:40:15;;;;;;;4.70;1.43;;;11.20;99.90;;;;;;7390453;19;20499;-80
2022/12/24 03:42:40;;;;;;;4.33;1.50;;;11.10;99.90;;;;;;7390505;19;20146;-80
2022/12/24 03:45:07;;;;;;;3.60;1.67;;;11.20;99.90;;;;;;7388665;19;20143;-82
2022/12/24 03:47:33;;;;;;;6.10;1.97;;;11.30;99.90;;;;;;7390963;19;20585;-79
2022/12/24 03:49:58;;;;;;;5.63;1.77;;;11.50;99.90;;;;;;7387839;19;20183;-82
2022/12/24 03:52:24;;;;;;;6.53;1.90;;;11.40;99.90;;;;;;7392389;19;20147;-82
2022/12/24 03:54:50;;;;;;;4.90;1.90;;;11.40;99.90;;;;;;7396370;19;20131;-82
2022/12/24 03:57:15;;;;;;;6.20;1.53;;;11.60;99.90;;;;;;7393672;19;20138;-83
2022/12/24 03:59:41;;;;;;;3.63;1.70;;;11.60;99.90;;;;;;7395606;19;20149;-82
2022/12/24 04:02:07;;;;;;;5.37;1.77;;;11.60;99.90;;;;;;7396831;19;20135;-80
2022/12/24 04:04:35;;;;;;;5.20;1.63;;;11.70;99.90;;;;;;7395903;19;20575;-82
2022/12/24 04:07:01;;;;;;;6.55;1.40;;;11.80;99.90;;;;;;7394638;19;20508;-79
2022/12/24 04:09:27;;;;;;;2.93;1.47;;;11.60;99.90;;;;;;7397009;19;20145;-80
2022/12/24 04:11:52;;;;;;;3.38;1.50;;;11.50;99.90;;;;;;7394351;19;20164;-82
2022/12/24 04:14:18;;;;;;;6.17;1.30;;;11.70;99.90;;;;;;7395316;19;20161;-81
2022/12/24 04:16:44;;;;;;;4.33;1.60;;;11.50;99.90;;;;;;7397094;19;20142;-81
2022/12/24 04:19:10;;;;;;;4.73;1.70;;;11.60;99.90;;;;;;7396292;19;20157;-83
2022/12/24 04:21:35;;;;;;;4.40;1.30;;;11.70;99.90;;;;;;7394170;19;20226;-80
2022/12/24 04:24:01;;;;;;;3.70;1.53;;;11.80;99.90;;;;;;7397391;19;20142;-79
2022/12/24 04:26:27;;;;;;;3.43;1.50;;;11.70;99.90;;;;;;7396203;19;20134;-80
2022/12/24 04:28:52;;;;;;;3.00;1.30;;;11.80;99.90;;;;;;7396029;19;20131;-81
2022/12/24 04:31:18;;;;;;;6.87;1.70;;;11.90;99.90;;;;;;7394590;19;20574;-83
2022/12/24 04:33:45;;;;;;;5.53;1.43;;;11.70;99.90;;;;;;7394848;19;20167;-82
2022/12/24 04:36:13;;;;;;;6.33;1.30;;;11.90;99.90;;;;;;7394708;19;20583;-81
2022/12/24 04:38:39;;;;;;;3.37;1.33;;;11.90;99.90;;;;;;7395148;19;20215;-81
2022/12/24 04:41:09;;;;;;;4.28;1.70;;;11.90;99.90;;;;;;7396685;19;20444;-82
2022/12/24 04:43:34;;;;;;;3.97;1.27;;;11.90;99.90;;;;;;7395817;19;20138;-83
2022/12/24 04:46:08;;;;;;;6.13;1.70;;;11.50;99.90;;;;;;7391635;19;20167;-81
2022/12/24 04:48:34;;;;;;;9.27;1.43;;;11.60;99.90;;;;;;7394750;19;20138;-82
2022/12/24 04:51:02;;;;;;;7.95;1.50;;;11.70;99.90;;;;;;7394508;19;20192;-82
2022/12/24 04:53:28;;;;;;;3.30;1.60;;;11.50;99.90;;;;;;7392204;19;20160;-83
2022/12/24 04:58:20;;;;;;;4.30;1.50;;;10.80;99.90;;;;;;7392522;19;20147;-80
2022/12/24 05:00:45;;;;;;;5.40;1.30;;;11.00;99.90;;;;;;7395013;19;20138;-82
2022/12/24 05:03:11;;;;;;;6.03;1.63;;;11.20;99.90;;;;;;7392600;19;20138;-82
2022/12/24 05:05:37;;;;;;;4.53;1.60;;;11.00;99.90;;;;;;7392044;19;20276;-83
2022/12/24 05:08:03;;;;;;;5.43;2.57;;;10.80;99.90;;;;;;7392516;19;20135;-81
2022/12/24 05:10:29;;;;;;;1.70;1.13;;;10.90;99.90;;;;;;7392172;19;20127;-81
2022/12/24 05:12:55;;;;;;;7.57;1.37;;;10.70;99.90;;;;;;7392334;19;20164;-84
2022/12/24 05:15:21;;;;;;;8.50;1.40;;;10.70;99.90;;;;;;7392899;19;20150;-83
2022/12/24 05:17:46;;;;;;;5.37;1.47;;;10.60;99.90;;;;;;7392517;19;20154;-83
2022/12/24 05:20:12;;;;;;;4.27;1.70;;;10.80;99.90;;;;;;7393148;19;20131;-84
2022/12/24 05:28:07;;;;;;;3.00;1.27;;;11.10;99.90;;;;;;7393013;19;20492;-83
2022/12/24 05:30:32;;;;;;;2.27;1.03;;;11.30;99.90;;;;;;7391666;19;20150;-83
2022/12/24 05:32:58;;;;;;;4.77;1.50;;;11.30;99.90;;;;;;7391908;19;20152;-83
2022/12/24 05:35:24;;;;;;;5.93;1.57;;;11.30;99.90;;;;;;7393641;19;20154;-80
2022/12/24 05:37:49;;;;;;;4.80;1.43;;;11.40;99.90;;;;;;7393457;19;20474;-84
2022/12/24 05:40:15;;;;;;;7.07;1.40;;;11.40;99.90;;;;;;7396824;19;20129;-81
2022/12/24 05:42:41;;;;;;;4.57;1.80;;;11.40;99.90;;;;;;7392037;19;20568;-83
2022/12/24 05:45:07;;;;;;;5.53;0.88;;;11.50;99.90;;;;;;7391733;19;20139;-82
2022/12/24 05:47:34;;;;;;;4.57;1.77;;;11.40;99.90;;;;;;7392926;19;20627;-82
2022/12/24 05:50:00;;;;;;;6.40;1.50;;;11.40;99.90;;;;;;7392066;19;20148;-80
2022/12/24 05:52:26;;;;;;;5.60;1.57;;;11.40;99.90;;;;;;7392310;19;20151;-81
2022/12/24 05:54:51;;;;;;;5.90;1.43;;;11.50;99.90;;;;;;7393251;19;20234;-81
2022/12/24 05:57:17;;;;;;;5.77;1.43;;;11.70;99.90;;;;;;7393033;19;20593;-83
2022/12/24 05:59:43;;;;;;;4.77;1.33;;;11.70;99.90;;;;;;7392848;19;20138;-81
2022/12/24 06:02:10;;;;;;;4.83;1.40;;;11.30;99.90;;;;;;7391608;19;20479;-81
2022/12/24 06:04:35;;;;;;;5.90;1.35;;;11.30;99.90;;;;;;7388977;19;20155;-81
2022/12/24 06:07:01;;;;;;;5.03;1.73;;;11.40;99.90;;;;;;7388025;19;20137;-82
2022/12/24 06:09:27;;;;;;;5.97;1.97;;;11.40;99.90;;;;;;7395219;19;20222;-82
2022/12/24 06:11:53;;;;;;;4.93;1.73;;;11.50;99.90;;;;;;7390925;19;20142;-81
2022/12/24 06:14:18;;;;;;;5.73;1.93;;;11.60;99.90;;;;;;7390493;19;20582;-81
2022/12/24 06:16:44;;;;;;;6.03;1.87;;;11.40;99.90;;;;;;7392621;19;20606;-82
2022/12/24 06:19:10;;;;;;;5.53;1.23;;;11.10;99.90;;;;;;7392053;19;20166;-84
2022/12/24 06:21:35;;;;;;;5.43;2.67;;;10.90;99.90;;;;;;7392512;19;20602;-82
2022/12/24 06:24:01;;;;;;;6.17;1.93;;;10.90;99.90;;;;;;7390705;19;20613;-84
2022/12/24 06:26:27;;;;;;;5.67;1.30;;;10.70;99.90;;;;;;7389941;19;20157;-82
2022/12/24 06:28:53;;;;;;;4.83;1.63;;;10.60;99.90;;;;;;7390552;19;20157;-82
2022/12/24 06:31:21;;;;;;;6.20;1.80;;;10.50;99.90;;;;;;7391571;19;20145;-81
2022/12/24 06:33:47;;;;;;;5.17;2.00;;;10.20;99.90;;;;;;7389767;19;20153;-82
2022/12/24 06:36:18;;;;;;;8.83;1.27;;;10.10;99.90;;;;;;7391095;19;20139;-81
2022/12/24 06:38:48;;;;;;;3.57;1.70;;;10.10;99.90;;;;;;7390384;19;20466;-83
2022/12/24 06:41:14;;;;;;;4.33;1.10;;;10.10;99.90;;;;;;7389932;19;20130;-81
2022/12/24 06:43:48;;;;;;;3.47;1.43;;;10.10;99.90;;;;;;7391631;19;20138;-79
2022/12/24 06:46:15;;;;;;;4.77;1.50;;;10.10;99.90;;;;;;7384577;19;20142;-81
2022/12/24 06:48:43;;;;;;;5.37;1.43;;;10.00;99.90;;;;;;7389832;19;20135;-78
2022/12/24 06:51:08;;;;;;;5.37;1.60;;;10.00;99.90;;;;;;7387225;19;20141;-82
2022/12/24 06:53:34;;;;;;;4.73;1.37;;;9.90;99.90;;;;;;7386076;19;20553;-81
2022/12/24 06:56:04;;;;;;;8.97;1.60;;;10.00;99.90;;;;;;7389781;19;20189;-82
2022/12/24 06:58:31;;;;;;;6.97;2.08;;;10.00;99.90;;;;;;7387776;19;20152;-81
2022/12/24 07:00:57;;;;;;;4.73;1.40;;;10.10;99.90;;;;;;7388728;19;20658;-79
2022/12/24 07:03:23;;;;;;;5.13;2.03;;;10.10;99.90;;;;;;7388125;19;20624;-81
2022/12/24 07:05:49;;;;;;;7.07;1.60;;;10.40;99.90;;;;;;7386938;19;20138;-82
2022/12/24 07:08:15;;;;;;;4.80;1.30;;;10.70;99.90;;;;;;7389632;19;20130;-80
2022/12/24 07:10:41;;;;;;;3.43;1.70;;;11.00;99.90;;;;;;7389283;19;20138;-82
2022/12/24 07:13:06;;;;;;;5.90;1.43;;;10.80;99.90;;;;;;7386996;19;20150;-82
2022/12/24 07:15:32;;;;;;;4.18;1.55;;;11.00;99.90;;;;;;7387706;19;20158;-82
2022/12/24 07:17:58;;;;;;;3.60;1.50;;;10.60;99.90;;;;;;7389521;19;20514;-81
2022/12/24 07:20:23;;;;;;;3.70;1.33;;;10.80;99.90;;;;;;7388039;19;20162;-81
2022/12/24 07:22:49;;;;;;;4.30;1.60;;;10.70;99.90;;;;;;7386968;19;20139;-81
2022/12/24 07:25:15;;;;;;;7.47;1.50;;;10.40;99.90;;;;;;7387808;19;20138;-82
2022/12/24 07:27:41;;;;;;;7.67;2.17;;;10.50;99.90;;;;;;7392484;19;20131;-81
2022/12/24 07:30:08;;;;;;;3.10;1.40;;;10.50;99.90;;;;;;7395760;19;20156;-82
2022/12/24 07:32:34;;;;;;;5.23;1.80;;;10.40;99.90;;;;;;7397963;19;20202;-83
2022/12/24 07:34:59;;;;;;;5.43;1.37;;;10.20;99.90;;;;;;7396862;19;20163;-82
2022/12/24 07:37:25;;;;;;;5.10;1.50;;;10.40;99.90;;;;;;7397235;19;20462;-79
2022/12/24 07:39:51;;;;;;;8.77;1.80;;;10.30;99.90;;;;;;7397574;19;20134;-81
2022/12/24 07:42:17;;;;;;;5.67;1.67;;;10.30;99.90;;;;;;7396219;19;20575;-82
2022/12/24 07:44:43;;;;;;;4.27;1.50;;;10.20;99.90;;;;;;7398142;19;20144;-82
2022/12/24 07:47:08;;;;;;;2.73;1.30;;;10.20;99.90;;;;;;7397459;19;20566;-81
2022/12/24 07:49:35;;;;;;;4.70;1.23;;;10.10;99.90;;;;;;7395270;19;20221;-78
2022/12/24 07:52:01;;;;;;;5.60;1.30;;;10.10;99.90;;;;;;7396242;19;20601;-79
2022/12/24 07:54:27;;;;;;;4.93;1.60;;;10.10;99.90;;;;;;7395551;19;20150;-80
2022/12/24 07:56:53;;;;;;;8.67;1.60;;;10.10;99.90;;;;;;7398125;19;20494;-80
2022/12/24 07:59:20;;;;;;;4.03;1.40;;;10.10;99.90;;;;;;7395436;19;20130;-80
2022/12/24 08:01:45;;;;;;;5.00;1.50;;;10.10;99.90;;;;;;7394830;19;20143;-78
2022/12/24 08:04:11;;;;;;;5.03;1.67;;;10.10;99.90;;;;;;7392375;19;20143;-79
2022/12/24 08:06:37;;;;;;;7.47;1.43;;;10.60;99.90;;;;;;7395397;19;20540;-78
2022/12/24 08:09:03;;;;;;;3.13;1.63;;;10.80;99.90;;;;;;7395139;19;20139;-79
2022/12/24 08:11:29;;;;;;;5.30;1.60;;;10.70;99.90;;;;;;7393334;19;20157;-79
2022/12/24 08:13:55;;;;;;;6.20;1.90;;;10.90;99.90;;;;;;7393127;19;20151;-79
2022/12/24 08:16:21;;;;;;;4.23;1.60;;;11.10;99.90;;;;;;7395263;19;20525;-80
2022/12/24 08:18:47;;;;;;;5.90;1.70;;;11.20;99.90;;;;;;7393540;19;20175;-79
2022/12/24 08:21:12;;;;;;;6.37;1.80;;;11.30;99.90;;;;;;7392768;19;20131;-81
2022/12/24 08:23:38;;;;;;;5.77;2.30;;;11.40;99.90;;;;;;7393468;19;20609;-79
2022/12/24 08:26:08;;;;;;;4.10;1.77;;;11.40;99.90;;;;;;7393662;19;20578;-79
2022/12/24 08:28:34;;;;;;;6.30;1.93;;;11.60;99.90;;;;;;7395866;19;20138;-79
2022/12/24 08:30:59;;;;;;;4.90;1.83;;;11.60;99.90;;;;;;7391800;19;20168;-77
2022/12/24 08:33:25;;;;;;;3.10;1.60;;;11.60;99.90;;;;;;7391907;19;20137;-82
2022/12/24 08:35:53;;;;;;;7.13;1.87;;;11.60;99.90;;;;;;7394162;19;20147;-81
2022/12/24 08:38:19;;;;;;;6.45;1.80;;;11.60;99.90;;;;;;7392821;19;20135;-82
2022/12/24 08:40:48;;;;;;;4.33;1.80;;;11.60;99.90;;;;;;7392424;19;20636;-82
2022/12/24 08:43:16;;;;;;;6.93;2.67;;;11.50;99.90;;;;;;7391487;19;20150;-82
2022/12/24 08:45:42;;;;;;;13.23;5.83;;;11.60;99.90;;;;;;7393199;19;20978;-81
2022/12/24 08:48:08;;;;;;;9.73;5.67;;;11.50;99.90;;;;;;7395922;19;20586;-80
2022/12/24 08:50:37;;;;;;;10.87;5.60;;;11.70;99.90;;;;;;7395694;19;20150;-80
2022/12/24 08:53:02;;;;;;;8.83;3.17;;;11.70;99.90;;;;;;7388809;19;20168;-80
2022/12/24 08:55:28;;;;;;;5.77;2.80;;;11.80;99.90;;;;;;7394221;19;20242;-81
2022/12/24 08:57:54;;;;;;;4.40;1.73;;;11.80;99.90;;;;;;7393704;19;20145;-81
2022/12/24 09:00:20;;;;;;;5.17;1.67;;;11.80;99.90;;;;;;7394085;19;20874;-82
2022/12/24 09:02:45;;;;;;;7.90;2.30;;;11.80;99.90;;;;;;7395465;19;20152;-78
2022/12/24 09:05:11;;;;;;;7.00;2.33;;;11.70;99.90;;;;;;7391023;19;20244;-80
2022/12/24 09:07:37;;;;;;;5.70;2.03;;;11.70;99.90;;;;;;7395104;19;20609;-81
2022/12/24 09:10:04;;;;;;;6.82;2.00;;;11.80;99.90;;;;;;7396151;19;20138;-79
2022/12/24 09:12:29;;;;;;;6.13;2.27;;;11.80;99.90;;;;;;7396813;19;20135;-81
2022/12/24 09:14:55;;;;;;;7.10;2.03;;;11.80;99.90;;;;;;7395268;19;20142;-78
2022/12/24 09:17:21;;;;;;;7.27;2.20;;;11.90;99.90;;;;;;7395665;19;20158;-79
2022/12/24 09:19:47;;;;;;;8.37;2.27;;;11.90;99.90;;;;;;7403788;19;20145;-81
2022/12/24 09:22:13;;;;;;;4.73;1.90;;;11.90;99.90;;;;;;7395101;19;20186;-80
2022/12/24 09:24:39;;;;;;;8.07;2.37;;;12.00;99.90;;;;;;7398611;19;20138;-79
2022/12/24 09:27:05;;;;;;;11.33;3.00;;;11.90;99.90;;;;;;7401432;19;20456;-79
2022/12/24 09:29:31;;;;;;;7.70;2.55;;;11.90;99.90;;;;;;7398450;19;20541;-79
2022/12/24 09:31:57;;;;;;;9.07;2.53;;;11.90;99.90;;;;;;7392395;19;20138;-84
2022/12/24 09:34:24;;;;;;;10.03;2.10;;;11.80;99.90;;;;;;7391105;19;20154;-82
2022/12/24 09:36:50;;;;;;;9.43;3.00;;;12.00;99.90;;;;;;7390889;19;20175;-83
2022/12/24 09:39:16;;;;;;;7.10;2.70;;;12.10;99.90;;;;;;7401560;19;20130;-82
2022/12/24 09:41:59;;;;;;;5.97;2.17;;;12.10;99.90;;;;;;7393894;19;20440;-80
2022/12/24 09:44:45;;;;;;;6.50;1.93;;;12.10;99.90;;;;;;7391704;19;20139;-84
2022/12/24 09:47:38;;;;;;;7.57;3.73;;;11.90;99.90;;;;;;7385833;19;20523;-80
2022/12/24 09:50:27;;;;;;;11.90;4.60;;;11.80;99.90;;;;;;7380692;19;20173;-83
2022/12/24 09:52:55;;;;;;;7.43;2.20;;;11.90;99.90;;;;;;7384312;19;20142;-79
2022/12/24 09:55:28;;;;;;;8.83;2.00;;;11.90;99.90;;;;;;7383448;19;20159;-82
2022/12/24 09:57:57;;;;;;;8.93;2.10;;;11.90;99.90;;;;;;7383892;19;20150;-83
2022/12/24 10:00:28;;;;;;;19.20;9.20;;;11.80;99.90;;;;;;7384564;19;20154;-81
2022/12/24 10:02:55;;;;;;;8.83;3.73;;;11.90;99.90;;;;;;7372607;19;20139;-81
2022/12/24 10:05:39;;;;;;;9.10;2.73;;;12.00;99.90;;;;;;7379228;19;20153;-82
2022/12/24 10:08:22;;;;;;;4.47;2.23;;;11.80;99.90;;;;;;7379661;19;20157;-81
2022/12/24 10:10:53;;;;;;;11.13;2.43;;;12.00;99.90;;;;;;7379608;19;20129;-79
2022/12/24 10:13:37;;;;;;;6.80;2.63;;;12.00;99.90;;;;;;7384014;19;20157;-82
2022/12/24 10:16:12;;;;;;;8.93;2.47;;;12.00;99.90;;;;;;7401668;19;20153;-80
2022/12/24 10:19:14;;;;;;;4.82;1.88;;;12.00;99.90;;;;;;7394570;19;20226;-82
2022/12/24 10:22:08;;;;;;;5.60;1.80;;;12.10;99.90;;;;;;7389542;19;20160;-82
2022/12/24 10:24:37;;;;;;;9.70;2.15;;;12.20;99.90;;;;;;7387515;19;20142;-81
2022/12/24 10:27:14;;;;;;;4.50;1.83;;;12.20;99.90;;;;;;7390679;19;20626;-81
2022/12/24 10:29:48;;;;;;;6.87;2.13;;;12.20;99.90;;;;;;7389279;19;20130;-81
2022/12/24 10:32:28;;;;;;;5.95;1.70;;;12.10;99.90;;;;;;7382461;19;20571;-80
2022/12/24 10:35:00;;;;;;;5.53;1.97;;;12.00;99.90;;;;;;7387601;19;20126;-81
2022/12/24 10:37:28;;;;;;;6.22;1.80;;;12.10;99.90;;;;;;7391752;19;20137;-82
2022/12/24 10:39:55;;;;;;;12.43;4.10;;;12.20;99.90;;;;;;7381491;19;20586;-82
2022/12/24 10:42:26;;;;;;;6.53;2.77;;;12.10;99.90;;;;;;7382806;19;20142;-81
2022/12/24 10:45:00;;;;;;;8.97;2.27;;;12.10;99.90;;;;;;7383920;19;20470;-79
2022/12/24 10:47:29;;;;;;;19.90;8.23;;;12.20;99.90;;;;;;7378420;19;20138;-79
2022/12/24 10:50:09;;;;;;;10.60;5.27;;;12.30;99.90;;;;;;7376808;19;20592;-80
2022/12/24 10:52:37;;;;;;;6.33;2.47;;;12.30;99.90;;;;;;7375786;19;20137;-80
2022/12/24 10:55:18;;;;;;;15.90;8.03;;;12.30;99.90;;;;;;7381809;19;20135;-80
2022/12/24 10:57:55;;;;;;;8.83;3.60;;;12.40;99.90;;;;;;7378911;19;20138;-77
2022/12/24 11:00:22;;;;;;;4.93;2.42;;;12.40;99.90;;;;;;7382951;19;20126;-79
2022/12/24 11:03:04;;;;;;;7.90;2.90;;;12.60;99.90;;;;;;7384422;19;20130;-77
2022/12/24 11:05:33;;;;;;;7.17;1.97;;;12.40;99.90;;;;;;7385578;19;20138;-79
2022/12/24 11:08:03;;;;;;;4.97;1.60;;;12.30;99.90;;;;;;7387953;19;20147;-77
2022/12/24 11:10:30;;;;;;;8.93;1.98;;;12.20;99.90;;;;;;7384927;19;20201;-77
2022/12/24 11:12:56;;;;;;;6.57;1.95;;;12.40;99.90;;;;;;7386324;19;20213;-78
2022/12/24 11:15:27;;;;;;;6.97;2.08;;;12.30;99.90;;;;;;7382604;19;20225;-79
2022/12/24 11:17:56;;;;;;;8.85;2.83;;;12.30;99.90;;;;;;7389892;19;20146;-78
2022/12/24 11:20:28;;;;;;;6.57;2.67;;;12.40;99.90;;;;;;7392498;19;20579;-78
2022/12/24 11:22:55;;;;;;;6.70;2.42;;;12.40;99.90;;;;;;7393430;19;20583;-78
2022/12/24 11:25:27;;;;;;;7.32;2.00;;;12.40;99.90;;;;;;7391650;19;20138;-77
2022/12/24 11:27:55;;;;;;;7.38;2.28;;;12.40;99.90;;;;;;7391290;19;20142;-78
2022/12/24 11:30:31;;;;;;;3.67;1.70;;;12.40;99.90;;;;;;7393410;19;20597;-78
2022/12/24 11:33:00;;;;;;;5.65;1.67;;;12.30;99.90;;;;;;7385880;19;20130;-77
2022/12/24 11:35:27;;;;;;;7.30;1.92;;;12.40;99.90;;;;;;7384535;19;20147;-79
2022/12/24 11:38:10;;;;;;;7.87;1.60;;;12.30;99.90;;;;;;7381645;19;20146;-78
2022/12/24 11:40:42;;;;;;;6.57;2.08;;;12.40;99.90;;;;;;7392922;19;20138;-79
2022/12/24 11:43:15;;;;;;;6.20;1.77;;;12.40;99.90;;;;;;7388082;19;20487;-77
2022/12/24 11:45:52;;;;;;;5.38;1.90;;;12.40;99.90;;;;;;7393123;19;20139;-78
2022/12/24 11:48:31;;;;;;;8.38;2.08;;;12.50;99.90;;;;;;7395677;19;20134;-77
2022/12/24 11:51:04;;;;;;;6.35;1.58;;;12.60;99.90;;;;;;7390196;19;20134;-78
2022/12/24 11:53:36;;;;;;;5.07;1.60;;;12.60;99.90;;;;;;7392037;19;20163;-78
2022/12/24 11:56:11;;;;;;;7.30;1.60;;;12.70;99.90;;;;;;7390168;19;20147;-79
2022/12/24 11:58:44;;;;;;;4.05;1.50;;;12.70;99.90;;;;;;7392051;19;20133;-76
2022/12/24 12:01:23;;;;;;;6.57;1.67;;;12.80;99.90;;;;;;7391054;19;20170;-79
2022/12/24 12:03:57;;;;;;;7.63;1.80;;;12.80;99.90;;;;;;7389376;19;20143;-77
2022/12/24 12:07:04;;;;;;;8.00;1.53;;;12.80;99.90;;;;;;7389203;19;20131;-76
2022/12/24 12:09:32;;;;;;;9.18;2.60;;;12.90;99.90;;;;;;7389034;19;20169;-77
2022/12/24 12:12:06;;;;;;;5.27;2.23;;;13.00;99.90;;;;;;7392659;19;20568;-76
2022/12/24 12:14:59;;;;;;;5.25;2.05;;;12.90;99.90;;;;;;7391092;19;21335;-76
2022/12/24 12:17:50;;;;;;;5.77;1.90;;;12.80;99.90;;;;;;7396328;19;20151;-75
2022/12/24 12:20:27;;;;;;;6.67;1.83;;;13.00;99.90;;;;;;7395257;19;20163;-77
2022/12/24 12:23:22;;;;;;;5.07;1.60;;;12.90;99.90;;;;;;7393085;19;20161;-77
2022/12/24 12:25:56;;;;;;;5.43;1.83;;;12.90;99.90;;;;;;7390176;19;20131;-76
2022/12/24 12:28:43;;;;;;;8.35;2.40;;;12.90;99.90;;;;;;7392080;19;20146;-75
2022/12/24 12:31:16;;;;;;;6.43;1.90;;;12.90;99.90;;;;;;7390674;19;20138;-84
2022/12/24 12:33:58;;;;;;;7.10;2.08;;;12.90;99.90;;;;;;7388025;19;20134;-86
2022/12/24 12:36:32;;;;;;;9.95;2.33;;;13.00;99.90;;;;;;7391265;19;20131;-82
2022/12/24 12:38:58;;;;;;;5.68;1.77;;;13.20;99.90;;;;;;7395798;19;20134;-83
2022/12/24 12:41:44;;;;;;;8.43;3.25;;;13.10;99.90;;;;;;7391617;19;20226;-82
2022/12/24 12:44:27;;;;;;;6.60;2.47;;;13.00;99.90;;;;;;7392566;19;20138;-81
2022/12/24 12:47:21;;;;;;;9.27;1.83;;;13.00;99.90;;;;;;7392180;19;20496;-83
2022/12/24 12:50:08;;;;;;;5.07;2.05;;;12.90;99.90;;;;;;7391754;19;20138;-80
2022/12/24 12:53:01;;;;;;;7.85;2.60;;;13.00;99.90;;;;;;7390231;19;20127;-83
2022/12/24 12:55:38;;;;;;;3.13;1.35;;;13.10;99.90;;;;;;7393889;19;20543;-81
2022/12/24 12:58:16;;;;;;;4.70;1.55;;;13.00;99.90;;;;;;7393981;19;20134;-78
2022/12/24 13:00:46;;;;;;;5.75;1.60;;;13.00;99.90;;;;;;7390738;19;20157;-78
2022/12/24 13:03:20;;;;;;;11.73;3.50;;;13.00;99.90;;;;;;7390293;19;20154;-78
2022/12/24 13:05:52;;;;;;;7.70;2.08;;;13.10;99.90;;;;;;7389181;19;20130;-79
2022/12/24 13:08:52;;;;;;;5.30;1.90;;;13.10;99.90;;;;;;7393571;19;20603;-77
2022/12/24 13:11:49;;;;;;;3.25;1.48;;;13.10;99.90;;;;;;7388645;19;20141;-78